Oakland, ME

11:32 PM EST on December 07, 2016 (GMT -0500)
North Belgrade | | Change Station

Elev 397 ft 44.55 °N, 69.80 °W | Updated 2 seconds ago

Overcast
Overcast
30.4 °F
Feels Like 30 °F
N
0.0
Wind Variable Wind from West
Gusts 0.0 mph

Today
High -- | Low -- °F
--% Chance of Precip.
Yesterday
High -- | Low -- °F
Precip. -- in
Pressure 30.04 in
Visibility 1.8 miles
Clouds Overcast 300 ft
Windchill 30 °F
Dew Point 29 °F
Humidity 94%
Rainfall 0.00 in
Snow Depth Not available.
7:02 AM 3:58 PM
First Quarter, 59% visible
METAR KWVL 080356Z AUTO VRB04KT 1 3/4SM BR OVC003 M01/M02 A2992 RMK AO2 SLP171 T10111022 FZRANO
Pressure 30.04 in
Visibility 1.8 miles
Clouds Overcast 300 ft
Windchill 30 °F
Dew Point 29 °F
Humidity 94%
Rainfall 0.00 in
Snow Depth Not available.
7:02 AM 3:58 PM
First Quarter, 59% visible
METAR KWVL 080356Z AUTO VRB04KT 1 3/4SM BR OVC003 M01/M02 A2992 RMK AO2 SLP171 T10111022 FZRANO

10-Day Weather Forecast

Almanac

Astronomy

Dec. 07, 2016 Rise Set
Actual Time
Civil Twilight
Nautical Twilight
Astronomical Twilight
Moon
Length of Visible Light
Length of Day
Tomorrow will be .
, % of the Moon is Illuminated

Today's Extremes

State Highs State Lows

Community

WunderPhotos

Upload Photos

1,956,259 photos uploaded!

WunderBlog® & News

Nearby

Air Quality

  Air Quality AQ Index Pollutant
Not available.

Snow Depth

Station Depth Elevation

Earthquake Activity

City Distance Mag. Time & Date
Minimum magnitude displayed is 2.5.

Coastal Water Temperatures

Place Temperature

Stations

Nearby Weather Stations

Station Location Temp. Windchill Dew Point Humidity Wind Precip. Elev Updated Type
                   

Watches & Warnings

There are currently no watches in effect.